sensor_id;sensor_type;location;lat;lon;timestamp;pressure;altitude;pressure_sealevel;temperature;humidity
51239;BME280;38154;47.548;18.828;2023-08-06T00:00:27;97463.97;;;18.01;100.00
51239;BME280;38154;47.548;18.828;2023-08-06T00:02:53;97469.72;;;17.92;100.00
51239;BME280;38154;47.548;18.828;2023-08-06T00:05:19;97477.31;;;17.98;100.00
51239;BME280;38154;47.548;18.828;2023-08-06T00:07:47;97480.06;;;17.96;100.00
51239;BME280;38154;47.548;18.828;2023-08-06T00:10:14;97483.13;;;17.87;100.00
51239;BME280;38154;47.548;18.828;2023-08-06T00:12:40;97485.87;;;18.03;100.00
51239;BME280;38154;47.548;18.828;2023-08-06T00:15:06;97478.03;;;18.02;100.00
51239;BME280;38154;47.548;18.828;2023-08-06T00:17:33;97480.13;;;17.95;100.00
51239;BME280;38154;47.548;18.828;2023-08-06T00:20:00;97480.91;;;18.14;100.00
51239;BME280;38154;47.548;18.828;2023-08-06T00:22:35;97471.22;;;18.15;100.00
51239;BME280;38154;47.548;18.828;2023-08-06T00:25:02;97466.78;;;18.15;100.00
51239;BME280;38154;47.548;18.828;2023-08-06T00:27:28;97470.34;;;18.14;100.00
51239;BME280;38154;47.548;18.828;2023-08-06T00:29:54;97476.56;;;18.13;100.00
51239;BME280;38154;47.548;18.828;2023-08-06T00:32:20;97477.16;;;18.01;100.00
51239;BME280;38154;47.548;18.828;2023-08-06T00:34:46;97479.41;;;17.91;100.00
51239;BME280;38154;47.548;18.828;2023-08-06T00:37:12;97470.41;;;17.95;100.00
51239;BME280;38154;47.548;18.828;2023-08-06T00:39:38;97467.09;;;18.09;100.00
51239;BME280;38154;47.548;18.828;2023-08-06T00:42:04;97466.06;;;17.94;100.00
51239;BME280;38154;47.548;18.828;2023-08-06T00:44:30;97468.19;;;17.86;100.00
51239;BME280;38154;47.548;18.828;2023-08-06T00:46:56;97468.16;;;17.88;100.00
51239;BME280;38154;47.548;18.828;2023-08-06T00:49:21;97461.97;;;18.06;100.00
51239;BME280;38154;47.548;18.828;2023-08-06T00:51:47;97471.50;;;18.09;100.00
51239;BME280;38154;47.548;18.828;2023-08-06T00:54:13;97464.38;;;18.11;100.00
51239;BME280;38154;47.548;18.828;2023-08-06T00:56:41;97451.12;;;17.95;100.00
51239;BME280;38154;47.548;18.828;2023-08-06T00:59:08;97446.00;;;17.92;100.00
51239;BME280;38154;47.548;18.828;2023-08-06T01:01:34;97442.59;;;17.90;100.00
51239;BME280;38154;47.548;18.828;2023-08-06T01:04:00;97433.34;;;17.79;100.00
51239;BME280;38154;47.548;18.828;2023-08-06T01:06:47;97430.16;;;17.73;100.00
51239;BME280;38154;47.548;18.828;2023-08-06T01:12:25;97417.16;;;17.70;100.00
51239;BME280;38154;47.548;18.828;2023-08-06T01:15:20;97430.66;;;17.81;100.00
51239;BME280;38154;47.548;18.828;2023-08-06T01:17:48;97420.78;;;17.67;100.00
51239;BME280;38154;47.548;18.828;2023-08-06T01:20:14;97417.31;;;17.67;100.00
51239;BME280;38154;47.548;18.828;2023-08-06T01:22:40;97399.78;;;17.66;100.00
51239;BME280;38154;47.548;18.828;2023-08-06T01:25:06;97400.81;;;17.63;100.00
51239;BME280;38154;47.548;18.828;2023-08-06T01:27:45;97399.72;;;17.67;100.00
51239;BME280;38154;47.548;18.828;2023-08-06T01:30:15;97398.47;;;17.74;100.00
51239;BME280;38154;47.548;18.828;2023-08-06T01:32:44;97393.59;;;17.67;100.00
51239;BME280;38154;47.548;18.828;2023-08-06T01:35:11;97392.81;;;17.65;100.00
51239;BME280;38154;47.548;18.828;2023-08-06T01:37:38;97392.16;;;17.59;100.00
51239;BME280;38154;47.548;18.828;2023-08-06T01:40:10;97408.53;;;17.66;100.00
51239;BME280;38154;47.548;18.828;2023-08-06T01:42:37;97394.97;;;17.56;100.00
51239;BME280;38154;47.548;18.828;2023-08-06T01:45:03;97400.00;;;17.61;100.00
51239;BME280;38154;47.548;18.828;2023-08-06T01:47:29;97403.72;;;17.57;100.00
51239;BME280;38154;47.548;18.828;2023-08-06T01:49:55;97396.09;;;17.51;100.00
51239;BME280;38154;47.548;18.828;2023-08-06T01:52:21;97392.16;;;17.42;100.00
51239;BME280;38154;47.548;18.828;2023-08-06T01:54:47;97394.09;;;17.38;100.00
51239;BME280;38154;47.548;18.828;2023-08-06T01:57:13;97384.47;;;17.37;100.00
51239;BME280;38154;47.548;18.828;2023-08-06T01:59:39;97382.78;;;17.36;100.00
51239;BME280;38154;47.548;18.828;2023-08-06T02:02:05;97379.87;;;17.41;100.00
51239;BME280;38154;47.548;18.828;2023-08-06T02:04:31;97371.84;;;17.44;100.00
51239;BME280;38154;47.548;18.828;2023-08-06T02:06:56;97359.44;;;17.46;100.00
51239;BME280;38154;47.548;18.828;2023-08-06T02:09:22;97352.06;;;17.53;100.00
51239;BME280;38154;47.548;18.828;2023-08-06T02:11:48;97348.91;;;17.46;100.00
51239;BME280;38154;47.548;18.828;2023-08-06T02:14:14;97343.06;;;17.39;100.00
51239;BME280;38154;47.548;18.828;2023-08-06T02:16:40;97336.13;;;17.38;100.00
51239;BME280;38154;47.548;18.828;2023-08-06T02:19:06;97328.28;;;17.37;100.00
51239;BME280;38154;47.548;18.828;2023-08-06T02:21:32;97324.00;;;17.34;100.00
51239;BME280;38154;47.548;18.828;2023-08-06T02:23:58;97330.44;;;17.29;100.00
51239;BME280;38154;47.548;18.828;2023-08-06T02:26:24;97324.25;;;17.30;100.00
51239;BME280;38154;47.548;18.828;2023-08-06T02:28:50;97323.38;;;17.29;100.00
51239;BME280;38154;47.548;18.828;2023-08-06T02:31:16;97309.78;;;17.38;100.00
51239;BME280;38154;47.548;18.828;2023-08-06T02:33:42;97308.38;;;17.31;100.00
51239;BME280;38154;47.548;18.828;2023-08-06T02:36:07;97308.53;;;17.28;100.00
51239;BME280;38154;47.548;18.828;2023-08-06T02:38:33;97305.97;;;17.27;100.00
51239;BME280;38154;47.548;18.828;2023-08-06T02:41:02;97312.84;;;17.29;100.00
51239;BME280;38154;47.548;18.828;2023-08-06T02:43:28;97312.06;;;17.27;100.00
51239;BME280;38154;47.548;18.828;2023-08-06T02:45:57;97308.03;;;17.20;100.00
51239;BME280;38154;47.548;18.828;2023-08-06T02:48:23;97295.87;;;17.17;100.00
51239;BME280;38154;47.548;18.828;2023-08-06T02:50:49;97306.66;;;17.13;100.00
51239;BME280;38154;47.548;18.828;2023-08-06T02:53:15;97295.56;;;17.06;100.00
51239;BME280;38154;47.548;18.828;2023-08-06T02:55:46;97303.69;;;17.01;100.00
51239;BME280;38154;47.548;18.828;2023-08-06T02:58:16;97303.75;;;17.00;100.00
51239;BME280;38154;47.548;18.828;2023-08-06T03:00:43;97297.72;;;16.98;100.00
51239;BME280;38154;47.548;18.828;2023-08-06T03:03:10;97298.69;;;16.95;100.00
51239;BME280;38154;47.548;18.828;2023-08-06T03:05:36;97303.13;;;16.95;100.00
51239;BME280;38154;47.548;18.828;2023-08-06T03:08:01;97304.97;;;16.93;100.00
51239;BME280;38154;47.548;18.828;2023-08-06T03:10:27;97312.00;;;16.92;100.00
51239;BME280;38154;47.548;18.828;2023-08-06T03:12:53;97319.25;;;16.87;100.00
51239;BME280;38154;47.548;18.828;2023-08-06T03:15:19;97317.75;;;16.81;100.00
51239;BME280;38154;47.548;18.828;2023-08-06T03:17:45;97307.31;;;16.80;100.00
51239;BME280;38154;47.548;18.828;2023-08-06T03:20:11;97306.38;;;16.81;100.00
51239;BME280;38154;47.548;18.828;2023-08-06T03:22:36;97308.00;;;16.83;100.00
51239;BME280;38154;47.548;18.828;2023-08-06T03:25:03;97311.37;;;16.87;100.00
51239;BME280;38154;47.548;18.828;2023-08-06T03:27:29;97304.34;;;16.87;100.00
51239;BME280;38154;47.548;18.828;2023-08-06T03:29:55;97299.22;;;16.84;100.00
51239;BME280;38154;47.548;18.828;2023-08-06T03:32:21;97307.12;;;16.84;100.00
51239;BME280;38154;47.548;18.828;2023-08-06T03:34:47;97295.69;;;16.84;100.00
51239;BME280;38154;47.548;18.828;2023-08-06T03:37:12;97302.09;;;16.78;100.00
51239;BME280;38154;47.548;18.828;2023-08-06T03:39:38;97298.91;;;16.72;100.00
51239;BME280;38154;47.548;18.828;2023-08-06T03:42:05;97309.66;;;16.67;100.00
51239;BME280;38154;47.548;18.828;2023-08-06T03:44:30;97298.62;;;16.59;100.00
51239;BME280;38154;47.548;18.828;2023-08-06T03:46:56;97305.16;;;16.50;100.00
51239;BME280;38154;47.548;18.828;2023-08-06T03:49:22;97301.97;;;16.43;100.00
51239;BME280;38154;47.548;18.828;2023-08-06T03:51:48;97301.13;;;16.43;100.00
51239;BME280;38154;47.548;18.828;2023-08-06T03:54:14;97302.81;;;16.44;100.00
51239;BME280;38154;47.548;18.828;2023-08-06T03:56:40;97301.97;;;16.43;100.00
51239;BME280;38154;47.548;18.828;2023-08-06T03:59:06;97305.63;;;16.41;100.00
51239;BME280;38154;47.548;18.828;2023-08-06T04:01:31;97311.78;;;16.40;100.00
51239;BME280;38154;47.548;18.828;2023-08-06T04:03:57;97307.50;;;16.37;100.00
51239;BME280;38154;47.548;18.828;2023-08-06T04:06:23;97308.50;;;16.35;100.00
51239;BME280;38154;47.548;18.828;2023-08-06T04:08:49;97303.53;;;16.28;100.00
51239;BME280;38154;47.548;18.828;2023-08-06T04:11:15;97307.09;;;16.27;100.00
51239;BME280;38154;47.548;18.828;2023-08-06T04:13:44;97303.72;;;16.24;100.00
51239;BME280;38154;47.548;18.828;2023-08-06T04:16:10;97305.56;;;16.22;100.00
51239;BME280;38154;47.548;18.828;2023-08-06T04:18:36;97297.16;;;16.13;100.00
51239;BME280;38154;47.548;18.828;2023-08-06T04:21:02;97294.72;;;16.10;100.00
51239;BME280;38154;47.548;18.828;2023-08-06T04:23:28;97298.31;;;16.08;100.00
51239;BME280;38154;47.548;18.828;2023-08-06T04:25:57;97301.00;;;16.06;100.00
51239;BME280;38154;47.548;18.828;2023-08-06T04:28:23;97298.25;;;16.09;100.00
51239;BME280;38154;47.548;18.828;2023-08-06T04:30:49;97289.44;;;16.10;100.00
51239;BME280;38154;47.548;18.828;2023-08-06T04:33:15;97288.37;;;16.14;100.00
51239;BME280;38154;47.548;18.828;2023-08-06T04:35:41;97283.06;;;16.16;100.00
51239;BME280;38154;47.548;18.828;2023-08-06T04:38:07;97278.56;;;16.18;100.00
51239;BME280;38154;47.548;18.828;2023-08-06T04:40:35;97278.25;;;16.05;100.00
51239;BME280;38154;47.548;18.828;2023-08-06T04:43:01;97273.88;;;16.06;100.00
51239;BME280;38154;47.548;18.828;2023-08-06T04:45:27;97274.59;;;16.09;100.00
51239;BME280;38154;47.548;18.828;2023-08-06T04:47:53;97279.66;;;16.14;100.00
51239;BME280;38154;47.548;18.828;2023-08-06T04:50:20;97271.75;;;16.14;100.00
51239;BME280;38154;47.548;18.828;2023-08-06T04:52:45;97276.84;;;16.17;100.00
51239;BME280;38154;47.548;18.828;2023-08-06T04:55:11;97279.47;;;16.17;100.00
51239;BME280;38154;47.548;18.828;2023-08-06T04:57:37;97277.91;;;16.13;100.00
51239;BME280;38154;47.548;18.828;2023-08-06T05:00:04;97279.56;;;16.16;100.00
51239;BME280;38154;47.548;18.828;2023-08-06T05:02:30;97268.03;;;16.18;100.00
51239;BME280;38154;47.548;18.828;2023-08-06T05:04:58;97273.03;;;16.24;100.00
51239;BME280;38154;47.548;18.828;2023-08-06T05:07:24;97268.75;;;16.22;100.00
51239;BME280;38154;47.548;18.828;2023-08-06T05:09:50;97265.41;;;16.18;100.00
51239;BME280;38154;47.548;18.828;2023-08-06T05:12:16;97268.56;;;16.26;100.00
51239;BME280;38154;47.548;18.828;2023-08-06T05:14:42;97265.91;;;16.26;100.00
51239;BME280;38154;47.548;18.828;2023-08-06T05:17:08;97272.09;;;16.25;100.00
51239;BME280;38154;47.548;18.828;2023-08-06T05:19:34;97269.41;;;16.27;100.00
51239;BME280;38154;47.548;18.828;2023-08-06T05:21:59;97270.09;;;16.11;100.00
51239;BME280;38154;47.548;18.828;2023-08-06T05:24:27;97267.47;;;16.11;100.00
51239;BME280;38154;47.548;18.828;2023-08-06T05:26:53;97261.16;;;16.16;100.00
51239;BME280;38154;47.548;18.828;2023-08-06T05:29:18;97269.59;;;16.03;100.00
51239;BME280;38154;47.548;18.828;2023-08-06T05:31:45;97268.62;;;16.06;100.00
51239;BME280;38154;47.548;18.828;2023-08-06T05:34:10;97268.94;;;15.98;100.00
51239;BME280;38154;47.548;18.828;2023-08-06T05:36:36;97273.34;;;15.98;100.00
51239;BME280;38154;47.548;18.828;2023-08-06T05:39:02;97268.38;;;15.91;100.00
51239;BME280;38154;47.548;18.828;2023-08-06T05:41:28;97264.41;;;16.02;100.00
51239;BME280;38154;47.548;18.828;2023-08-06T05:43:54;97260.84;;;16.03;100.00
51239;BME280;38154;47.548;18.828;2023-08-06T05:46:20;97260.22;;;15.98;100.00
51239;BME280;38154;47.548;18.828;2023-08-06T05:48:46;97257.84;;;15.91;100.00
51239;BME280;38154;47.548;18.828;2023-08-06T05:51:11;97258.03;;;15.87;100.00
51239;BME280;38154;47.548;18.828;2023-08-06T05:53:38;97255.34;;;15.88;100.00
51239;BME280;38154;47.548;18.828;2023-08-06T05:56:04;97250.31;;;15.84;100.00
51239;BME280;38154;47.548;18.828;2023-08-06T05:58:30;97246.88;;;15.82;100.00
51239;BME280;38154;47.548;18.828;2023-08-06T06:00:56;97239.81;;;15.84;100.00
51239;BME280;38154;47.548;18.828;2023-08-06T06:03:22;97238.88;;;15.85;100.00
51239;BME280;38154;47.548;18.828;2023-08-06T06:05:48;97237.03;;;15.87;100.00
51239;BME280;38154;47.548;18.828;2023-08-06T06:08:14;97237.91;;;15.87;100.00
51239;BME280;38154;47.548;18.828;2023-08-06T06:10:40;97236.75;;;15.93;100.00
51239;BME280;38154;47.548;18.828;2023-08-06T06:13:06;97244.31;;;16.01;100.00
51239;BME280;38154;47.548;18.828;2023-08-06T06:15:31;97242.84;;;15.93;100.00
51239;BME280;38154;47.548;18.828;2023-08-06T06:17:57;97244.13;;;15.85;100.00
51239;BME280;38154;47.548;18.828;2023-08-06T06:20:23;97234.63;;;15.82;100.00
51239;BME280;38154;47.548;18.828;2023-08-06T06:22:49;97232.84;;;15.83;100.00
51239;BME280;38154;47.548;18.828;2023-08-06T06:25:15;97234.84;;;15.97;100.00
51239;BME280;38154;47.548;18.828;2023-08-06T06:27:41;97236.81;;;15.91;100.00
51239;BME280;38154;47.548;18.828;2023-08-06T06:30:07;97235.28;;;16.06;100.00
51239;BME280;38154;47.548;18.828;2023-08-06T06:32:33;97243.22;;;16.05;100.00
51239;BME280;38154;47.548;18.828;2023-08-06T06:34:59;97246.50;;;15.91;100.00
51239;BME280;38154;47.548;18.828;2023-08-06T06:37:25;97239.31;;;16.13;100.00
51239;BME280;38154;47.548;18.828;2023-08-06T06:39:51;97240.69;;;16.22;100.00
51239;BME280;38154;47.548;18.828;2023-08-06T06:42:17;97239.91;;;16.20;100.00
51239;BME280;38154;47.548;18.828;2023-08-06T06:44:43;97244.03;;;16.26;100.00
51239;BME280;38154;47.548;18.828;2023-08-06T06:47:09;97249.00;;;16.32;100.00
51239;BME280;38154;47.548;18.828;2023-08-06T06:49:34;97254.69;;;16.23;100.00
51239;BME280;38154;47.548;18.828;2023-08-06T06:52:00;97250.34;;;16.22;100.00
51239;BME280;38154;47.548;18.828;2023-08-06T06:54:26;97256.81;;;16.33;100.00
51239;BME280;38154;47.548;18.828;2023-08-06T06:56:52;97252.69;;;16.47;100.00
51239;BME280;38154;47.548;18.828;2023-08-06T06:59:18;97257.53;;;16.56;100.00
51239;BME280;38154;47.548;18.828;2023-08-06T07:01:44;97254.97;;;16.55;100.00
51239;BME280;38154;47.548;18.828;2023-08-06T07:04:09;97260.59;;;16.66;100.00
51239;BME280;38154;47.548;18.828;2023-08-06T07:06:35;97257.22;;;16.62;100.00
51239;BME280;38154;47.548;18.828;2023-08-06T07:09:01;97245.34;;;16.73;100.00
51239;BME280;38154;47.548;18.828;2023-08-06T07:11:27;97250.63;;;16.73;100.00
51239;BME280;38154;47.548;18.828;2023-08-06T07:13:57;97249.75;;;16.72;100.00
51239;BME280;38154;47.548;18.828;2023-08-06T07:16:26;97253.19;;;16.55;100.00
51239;BME280;38154;47.548;18.828;2023-08-06T07:18:53;97258.59;;;16.52;100.00
51239;BME280;38154;47.548;18.828;2023-08-06T07:21:19;97261.22;;;16.52;100.00
51239;BME280;38154;47.548;18.828;2023-08-06T07:23:45;97270.19;;;16.48;100.00
51239;BME280;38154;47.548;18.828;2023-08-06T07:26:11;97269.56;;;16.43;100.00
51239;BME280;38154;47.548;18.828;2023-08-06T07:28:37;97264.94;;;16.48;100.00
51239;BME280;38154;47.548;18.828;2023-08-06T07:31:03;97279.31;;;16.41;100.00
51239;BME280;38154;47.548;18.828;2023-08-06T07:33:29;97286.75;;;16.31;100.00
51239;BME280;38154;47.548;18.828;2023-08-06T07:35:55;97290.94;;;16.16;100.00
51239;BME280;38154;47.548;18.828;2023-08-06T07:38:21;97290.28;;;16.11;100.00
51239;BME280;38154;47.548;18.828;2023-08-06T07:40:47;97299.03;;;16.11;100.00
51239;BME280;38154;47.548;18.828;2023-08-06T07:43:13;97283.56;;;16.24;100.00
51239;BME280;38154;47.548;18.828;2023-08-06T07:45:39;97272.16;;;16.24;100.00
51239;BME280;38154;47.548;18.828;2023-08-06T07:48:05;97275.47;;;16.29;100.00
51239;BME280;38154;47.548;18.828;2023-08-06T07:50:31;97271.38;;;16.22;100.00
51239;BME280;38154;47.548;18.828;2023-08-06T07:52:57;97276.78;;;16.19;100.00
51239;BME280;38154;47.548;18.828;2023-08-06T07:55:23;97271.47;;;16.39;100.00
51239;BME280;38154;47.548;18.828;2023-08-06T07:57:49;97275.72;;;16.42;100.00
51239;BME280;38154;47.548;18.828;2023-08-06T08:00:15;97278.78;;;16.51;100.00
51239;BME280;38154;47.548;18.828;2023-08-06T08:02:41;97273.47;;;16.53;100.00
51239;BME280;38154;47.548;18.828;2023-08-06T08:05:07;97278.84;;;16.69;100.00
51239;BME280;38154;47.548;18.828;2023-08-06T08:07:34;97276.31;;;16.67;100.00
51239;BME280;38154;47.548;18.828;2023-08-06T08:10:00;97276.59;;;16.61;100.00
51239;BME280;38154;47.548;18.828;2023-08-06T08:12:25;97268.56;;;16.64;100.00
51239;BME280;38154;47.548;18.828;2023-08-06T08:14:51;97272.37;;;16.57;100.00
51239;BME280;38154;47.548;18.828;2023-08-06T08:17:17;97265.84;;;16.66;100.00
51239;BME280;38154;47.548;18.828;2023-08-06T08:19:43;97266.28;;;16.57;100.00
51239;BME280;38154;47.548;18.828;2023-08-06T08:22:09;97275.62;;;16.62;100.00
51239;BME280;38154;47.548;18.828;2023-08-06T08:24:35;97277.72;;;16.56;100.00
51239;BME280;38154;47.548;18.828;2023-08-06T08:27:01;97270.69;;;16.56;100.00
51239;BME280;38154;47.548;18.828;2023-08-06T08:29:27;97267.91;;;16.59;100.00
51239;BME280;38154;47.548;18.828;2023-08-06T08:31:52;97277.31;;;16.82;100.00
51239;BME280;38154;47.548;18.828;2023-08-06T08:34:18;97267.66;;;17.02;100.00
51239;BME280;38154;47.548;18.828;2023-08-06T08:36:44;97275.03;;;17.13;100.00
51239;BME280;38154;47.548;18.828;2023-08-06T08:39:13;97282.13;;;17.11;100.00
51239;BME280;38154;47.548;18.828;2023-08-06T08:41:39;97290.03;;;17.11;100.00
51239;BME280;38154;47.548;18.828;2023-08-06T08:44:09;97301.44;;;17.11;100.00
51239;BME280;38154;47.548;18.828;2023-08-06T08:46:37;97293.13;;;17.01;100.00
51239;BME280;38154;47.548;18.828;2023-08-06T08:49:05;97296.00;;;16.97;100.00
51239;BME280;38154;47.548;18.828;2023-08-06T08:51:33;97280.37;;;17.11;100.00
51239;BME280;38154;47.548;18.828;2023-08-06T08:54:03;97279.69;;;17.25;100.00
51239;BME280;38154;47.548;18.828;2023-08-06T08:56:29;97268.19;;;17.09;100.00
51239;BME280;38154;47.548;18.828;2023-08-06T08:58:56;97288.50;;;17.06;100.00
51239;BME280;38154;47.548;18.828;2023-08-06T09:01:22;97284.00;;;17.09;100.00
51239;BME280;38154;47.548;18.828;2023-08-06T09:03:49;97279.50;;;17.11;100.00
51239;BME280;38154;47.548;18.828;2023-08-06T09:06:17;97277.50;;;16.98;100.00
51239;BME280;38154;47.548;18.828;2023-08-06T09:08:51;97269.03;;;16.92;100.00
51239;BME280;38154;47.548;18.828;2023-08-06T09:11:21;97274.16;;;17.12;100.00
51239;BME280;38154;47.548;18.828;2023-08-06T09:13:47;97278.88;;;17.05;100.00
51239;BME280;38154;47.548;18.828;2023-08-06T09:16:13;97270.44;;;16.99;100.00
51239;BME280;38154;47.548;18.828;2023-08-06T09:18:39;97270.50;;;16.97;100.00
51239;BME280;38154;47.548;18.828;2023-08-06T09:21:05;97270.75;;;16.93;100.00
51239;BME280;38154;47.548;18.828;2023-08-06T09:23:31;97273.37;;;16.74;100.00
51239;BME280;38154;47.548;18.828;2023-08-06T09:25:59;97270.25;;;16.65;100.00
51239;BME280;38154;47.548;18.828;2023-08-06T09:28:36;97275.56;;;16.64;100.00
51239;BME280;38154;47.548;18.828;2023-08-06T09:31:04;97288.97;;;16.59;100.00
51239;BME280;38154;47.548;18.828;2023-08-06T09:33:29;97304.69;;;16.61;100.00
51239;BME280;38154;47.548;18.828;2023-08-06T09:35:55;97309.66;;;16.67;100.00
51239;BME280;38154;47.548;18.828;2023-08-06T09:38:21;97306.16;;;16.66;100.00
51239;BME280;38154;47.548;18.828;2023-08-06T09:40:47;97322.69;;;16.51;100.00
51239;BME280;38154;47.548;18.828;2023-08-06T09:43:13;97321.81;;;16.50;100.00
51239;BME280;38154;47.548;18.828;2023-08-06T09:45:42;97328.13;;;16.27;100.00
51239;BME280;38154;47.548;18.828;2023-08-06T09:48:09;97323.06;;;16.04;100.00
51239;BME280;38154;47.548;18.828;2023-08-06T09:50:37;97320.25;;;16.07;100.00
51239;BME280;38154;47.548;18.828;2023-08-06T09:53:05;97316.22;;;16.19;100.00
51239;BME280;38154;47.548;18.828;2023-08-06T09:55:32;97315.50;;;16.15;100.00
51239;BME280;38154;47.548;18.828;2023-08-06T09:57:58;97313.62;;;16.38;100.00
51239;BME280;38154;47.548;18.828;2023-08-06T10:00:25;97313.34;;;16.63;100.00
51239;BME280;38154;47.548;18.828;2023-08-06T10:02:52;97317.25;;;16.92;100.00
51239;BME280;38154;47.548;18.828;2023-08-06T10:05:20;97314.00;;;17.06;100.00
51239;BME280;38154;47.548;18.828;2023-08-06T10:07:47;97325.59;;;17.02;100.00
51239;BME280;38154;47.548;18.828;2023-08-06T10:10:13;97327.94;;;17.08;100.00
51239;BME280;38154;47.548;18.828;2023-08-06T10:12:43;97341.81;;;17.12;100.00
51239;BME280;38154;47.548;18.828;2023-08-06T10:15:14;97338.53;;;17.06;100.00
51239;BME280;38154;47.548;18.828;2023-08-06T10:17:41;97339.94;;;17.14;100.00
51239;BME280;38154;47.548;18.828;2023-08-06T10:20:09;97339.72;;;17.18;100.00
51239;BME280;38154;47.548;18.828;2023-08-06T10:22:35;97340.84;;;17.32;100.00
51239;BME280;38154;47.548;18.828;2023-08-06T10:25:02;97352.06;;;17.53;100.00
51239;BME280;38154;47.548;18.828;2023-08-06T10:27:53;97353.28;;;17.65;100.00
51239;BME280;38154;47.548;18.828;2023-08-06T10:32:53;97354.69;;;17.89;100.00
51239;BME280;38154;47.548;18.828;2023-08-06T10:35:40;97368.94;;;18.20;100.00
51239;BME280;38154;47.548;18.828;2023-08-06T10:43:36;97364.22;;;17.92;100.00
51239;BME280;38154;47.548;18.828;2023-08-06T10:46:09;97369.78;;;17.86;100.00
51239;BME280;38154;47.548;18.828;2023-08-06T10:51:05;97369.97;;;17.46;100.00
51239;BME280;38154;47.548;18.828;2023-08-06T10:53:31;97364.75;;;17.64;100.00
51239;BME280;38154;47.548;18.828;2023-08-06T10:55:57;97370.59;;;17.88;100.00
51239;BME280;38154;47.548;18.828;2023-08-06T10:58:23;97374.81;;;17.73;100.00
51239;BME280;38154;47.548;18.828;2023-08-06T11:00:49;97373.66;;;17.78;100.00
51239;BME280;38154;47.548;18.828;2023-08-06T11:03:15;97386.56;;;18.02;100.00
51239;BME280;38154;47.548;18.828;2023-08-06T11:05:48;97386.50;;;18.04;100.00
51239;BME280;38154;47.548;18.828;2023-08-06T11:08:24;97383.88;;;17.85;100.00
51239;BME280;38154;47.548;18.828;2023-08-06T11:10:50;97393.13;;;17.58;100.00
51239;BME280;38154;47.548;18.828;2023-08-06T11:13:17;97396.88;;;17.35;100.00
51239;BME280;38154;47.548;18.828;2023-08-06T11:15:44;97397.94;;;17.31;100.00
51239;BME280;38154;47.548;18.828;2023-08-06T11:18:10;97400.72;;;17.28;100.00
51239;BME280;38154;47.548;18.828;2023-08-06T11:20:36;97406.06;;;17.27;100.00
51239;BME280;38154;47.548;18.828;2023-08-06T11:23:03;97404.72;;;17.18;100.00
51239;BME280;38154;47.548;18.828;2023-08-06T11:25:28;97405.22;;;17.07;100.00
51239;BME280;38154;47.548;18.828;2023-08-06T11:27:54;97409.00;;;17.01;100.00
51239;BME280;38154;47.548;18.828;2023-08-06T11:30:20;97404.38;;;17.06;100.00
51239;BME280;38154;47.548;18.828;2023-08-06T11:32:47;97406.16;;;17.06;100.00
51239;BME280;38154;47.548;18.828;2023-08-06T11:35:15;97420.38;;;17.02;100.00
51239;BME280;38154;47.548;18.828;2023-08-06T11:37:47;97407.16;;;16.84;100.00
51239;BME280;38154;47.548;18.828;2023-08-06T11:40:15;97406.50;;;16.98;100.00
51239;BME280;38154;47.548;18.828;2023-08-06T11:42:41;97396.97;;;17.15;100.00
51239;BME280;38154;47.548;18.828;2023-08-06T11:45:08;97393.03;;;17.23;100.00
51239;BME280;38154;47.548;18.828;2023-08-06T11:47:38;97394.25;;;17.53;100.00
51239;BME280;38154;47.548;18.828;2023-08-06T11:50:06;97390.25;;;17.80;100.00
51239;BME280;38154;47.548;18.828;2023-08-06T11:52:32;97396.34;;;18.00;100.00
51239;BME280;38154;47.548;18.828;2023-08-06T11:55:06;97393.31;;;17.90;100.00
51239;BME280;38154;47.548;18.828;2023-08-06T11:57:34;97404.72;;;17.91;100.00
51239;BME280;38154;47.548;18.828;2023-08-06T12:00:05;97407.91;;;17.97;100.00
51239;BME280;38154;47.548;18.828;2023-08-06T12:02:35;97412.25;;;17.98;100.00
51239;BME280;38154;47.548;18.828;2023-08-06T12:05:13;97412.03;;;18.03;100.00
51239;BME280;38154;47.548;18.828;2023-08-06T12:07:40;97419.41;;;17.77;100.00
51239;BME280;38154;47.548;18.828;2023-08-06T12:10:07;97412.25;;;17.45;100.00
51239;BME280;38154;47.548;18.828;2023-08-06T12:12:34;97417.09;;;17.35;100.00
51239;BME280;38154;47.548;18.828;2023-08-06T12:15:00;97411.53;;;17.22;100.00
51239;BME280;38154;47.548;18.828;2023-08-06T12:17:26;97412.00;;;17.13;100.00
51239;BME280;38154;47.548;18.828;2023-08-06T12:19:52;97424.44;;;17.09;100.00
51239;BME280;38154;47.548;18.828;2023-08-06T12:22:18;97417.59;;;17.24;100.00
51239;BME280;38154;47.548;18.828;2023-08-06T12:24:46;97417.03;;;17.36;100.00
51239;BME280;38154;47.548;18.828;2023-08-06T12:27:12;97429.59;;;17.49;100.00
51239;BME280;38154;47.548;18.828;2023-08-06T12:29:43;97425.91;;;17.70;100.00
51239;BME280;38154;47.548;18.828;2023-08-06T12:32:10;97433.91;;;17.69;100.00
51239;BME280;38154;47.548;18.828;2023-08-06T12:34:40;97440.72;;;17.73;100.00
51239;BME280;38154;47.548;18.828;2023-08-06T12:37:06;97444.78;;;17.80;100.00
51239;BME280;38154;47.548;18.828;2023-08-06T12:39:33;97440.97;;;17.68;100.00
51239;BME280;38154;47.548;18.828;2023-08-06T12:42:00;97445.28;;;17.52;100.00
51239;BME280;38154;47.548;18.828;2023-08-06T12:44:26;97447.19;;;17.48;100.00
51239;BME280;38154;47.548;18.828;2023-08-06T12:46:52;97451.41;;;17.33;100.00
51239;BME280;38154;47.548;18.828;2023-08-06T12:49:19;97454.75;;;17.37;100.00
51239;BME280;38154;47.548;18.828;2023-08-06T12:51:50;97459.00;;;17.39;100.00